createdAt,value
2022-09-02T00:01:38.280Z,19.36
2022-09-02T00:04:09.305Z,19.38
2022-09-02T00:06:39.479Z,19.40
2022-09-02T00:09:09.463Z,19.41
2022-09-02T00:11:39.080Z,19.43
2022-09-02T00:14:13.510Z,19.45
2022-09-02T00:16:52.319Z,19.43
2022-09-02T00:19:21.990Z,19.35
2022-09-02T00:21:51.924Z,19.30
2022-09-02T00:24:20.376Z,19.21
2022-09-02T00:26:48.585Z,19.07
2022-09-02T00:29:16.927Z,18.93
2022-09-02T00:31:46.718Z,18.89
2022-09-02T00:34:15.252Z,18.86
2022-09-02T00:36:43.376Z,18.99
2022-09-02T00:39:12.816Z,19.09
2022-09-02T00:41:43.232Z,19.09
2022-09-02T00:44:13.589Z,19.09
2022-09-02T00:46:41.910Z,19.07
2022-09-02T00:49:16.044Z,19.08
2022-09-02T00:51:47.549Z,19.06
2022-09-02T00:54:20.153Z,19.00
2022-09-02T00:56:50.561Z,18.98
2022-09-02T00:59:28.190Z,18.97
2022-09-02T01:01:56.555Z,18.99
2022-09-02T01:04:24.753Z,19.01
2022-09-02T01:06:54.051Z,19.00
2022-09-02T01:09:23.574Z,18.97
2022-09-02T01:11:53.600Z,18.92
2022-09-02T01:14:22.150Z,18.92
2022-09-02T01:16:54.410Z,18.94
2022-09-02T01:19:25.763Z,18.90
2022-09-02T01:21:56.664Z,18.88
2022-09-02T01:24:29.087Z,18.89
2022-09-02T01:26:59.416Z,18.84
2022-09-02T01:29:29.399Z,18.80
2022-09-02T01:31:58.284Z,18.78
2022-09-02T01:34:26.998Z,18.83
2022-09-02T01:36:56.617Z,18.83
2022-09-02T01:39:24.768Z,18.84
2022-09-02T01:41:53.372Z,18.85
2022-09-02T01:44:21.653Z,18.87
2022-09-02T01:46:51.364Z,18.88
2022-09-02T01:49:19.547Z,18.88
2022-09-02T01:51:48.642Z,18.85
2022-09-02T01:54:18.548Z,18.84
2022-09-02T01:56:46.558Z,18.83
2022-09-02T01:59:18.004Z,18.78
2022-09-02T02:01:47.017Z,18.77
2022-09-02T02:04:17.109Z,18.79
2022-09-02T02:06:48.871Z,18.64
2022-09-02T02:09:23.448Z,18.51
2022-09-02T02:11:53.266Z,18.54
2022-09-02T02:14:21.505Z,18.59
2022-09-02T02:16:51.822Z,18.63
2022-09-02T02:19:19.971Z,18.69
2022-09-02T02:21:49.339Z,18.69
2022-09-02T02:24:18.406Z,18.65
2022-09-02T02:26:48.074Z,18.66
2022-09-02T02:29:17.316Z,18.64
2022-09-02T02:31:45.923Z,18.65
2022-09-02T02:34:14.099Z,18.66
2022-09-02T02:36:44.135Z,18.68
2022-09-02T02:39:13.620Z,18.73
2022-09-02T02:41:44.949Z,18.69
2022-09-02T02:44:15.636Z,18.69
2022-09-02T02:46:44.086Z,18.68
2022-09-02T02:49:14.107Z,18.62
2022-09-02T02:51:43.600Z,18.58
2022-09-02T02:54:14.424Z,18.54
2022-09-02T02:56:43.131Z,18.56
2022-09-02T02:59:11.330Z,18.63
2022-09-02T03:01:40.990Z,18.54
2022-09-02T03:04:09.251Z,18.49
2022-09-02T03:06:37.300Z,18.46
2022-09-02T03:09:06.066Z,18.46
2022-09-02T03:11:36.539Z,18.47
2022-09-02T03:14:05.209Z,18.43
2022-09-02T03:16:35.611Z,18.38
2022-09-02T03:19:06.169Z,18.35
2022-09-02T03:21:38.771Z,18.36
2022-09-02T03:24:09.058Z,18.38
2022-09-02T03:26:37.263Z,18.33
2022-09-02T03:29:05.791Z,18.23
2022-09-02T03:31:34.841Z,18.25
2022-09-02T03:34:04.228Z,18.22
2022-09-02T03:36:38.780Z,18.17
2022-09-02T03:39:10.046Z,18.15
2022-09-02T03:41:41.336Z,18.14
2022-09-02T03:44:10.818Z,18.16
2022-09-02T03:46:39.969Z,18.18
2022-09-02T03:49:08.217Z,18.17
2022-09-02T03:51:41.800Z,18.16
2022-09-02T03:54:10.941Z,18.12
2022-09-02T03:56:40.385Z,18.07
2022-09-02T03:59:09.581Z,18.01
2022-09-02T04:01:38.314Z,17.97
2022-09-02T04:04:08.393Z,17.95
2022-09-02T04:06:39.688Z,17.92
2022-09-02T04:09:08.069Z,17.91
2022-09-02T04:11:37.234Z,17.91
2022-09-02T04:14:05.642Z,17.93
2022-09-02T04:16:35.366Z,17.93
2022-09-02T04:19:09.548Z,17.90
2022-09-02T04:21:41.837Z,17.91
2022-09-02T04:24:12.738Z,17.95
2022-09-02T04:26:45.374Z,17.92
2022-09-02T04:29:15.464Z,17.92
2022-09-02T04:31:45.313Z,17.96
2022-09-02T04:34:13.570Z,17.96
2022-09-02T04:36:44.221Z,18.02
2022-09-02T04:39:13.711Z,18.02
2022-09-02T04:41:42.590Z,17.97
2022-09-02T04:44:13.081Z,17.94
2022-09-02T04:46:44.601Z,17.90
2022-09-02T04:49:17.733Z,17.79
2022-09-02T04:51:48.539Z,17.67
2022-09-02T04:54:16.598Z,17.61
2022-09-02T04:56:48.694Z,17.53
2022-09-02T04:59:17.086Z,17.55
2022-09-02T05:01:54.250Z,17.62
2022-09-02T05:04:27.360Z,17.70
2022-09-02T05:06:58.220Z,17.75
2022-09-02T05:09:26.388Z,17.79
2022-09-02T05:12:04.346Z,17.80
2022-09-02T05:14:43.574Z,17.77
2022-09-02T05:17:11.952Z,17.79
2022-09-02T05:19:43.522Z,17.80
2022-09-02T05:22:13.441Z,17.79
2022-09-02T05:24:43.767Z,17.81
2022-09-02T05:27:16.316Z,17.85
2022-09-02T05:29:45.767Z,17.84
2022-09-02T05:32:16.065Z,17.74
2022-09-02T05:34:46.581Z,17.66
2022-09-02T05:37:16.049Z,17.58
2022-09-02T05:39:44.325Z,17.22
2022-09-02T05:42:12.447Z,17.29
2022-09-02T05:44:44.563Z,17.46
2022-09-02T05:47:14.042Z,17.52
2022-09-02T05:49:43.067Z,17.61
2022-09-02T05:52:15.793Z,17.67
2022-09-02T05:54:46.866Z,17.75
2022-09-02T05:57:18.789Z,17.83
2022-09-02T06:00:17.768Z,17.90
2022-09-02T06:02:53.406Z,18.02
2022-09-02T06:05:30.003Z,18.07
2022-09-02T06:08:08.440Z,18.08
2022-09-02T06:10:42.519Z,17.97
2022-09-02T06:13:12.674Z,17.36
2022-09-02T06:15:44.284Z,16.91
2022-09-02T06:18:14.294Z,16.96
2022-09-02T06:20:46.927Z,17.36
2022-09-02T06:23:17.907Z,17.60
2022-09-02T06:25:49.311Z,17.75
2022-09-02T06:28:17.931Z,17.77
2022-09-02T06:30:48.560Z,17.96
2022-09-02T06:33:18.740Z,18.04
2022-09-02T06:35:49.422Z,18.10
2022-09-02T06:38:20.988Z,18.17
2022-09-02T06:40:52.775Z,18.27
2022-09-02T06:43:27.955Z,18.38
2022-09-02T06:46:09.731Z,18.47
2022-09-02T06:48:39.128Z,18.46
2022-09-02T06:51:08.899Z,18.48
2022-09-02T06:53:39.095Z,18.58
2022-09-02T06:56:08.607Z,18.77
2022-09-02T06:58:36.673Z,18.95
2022-09-02T07:01:04.977Z,19.06
2022-09-02T07:03:50.773Z,19.12
2022-09-02T07:06:19.061Z,19.14
2022-09-02T07:08:51.576Z,19.26
2022-09-02T07:11:22.874Z,19.43
2022-09-02T07:13:54.419Z,19.54
2022-09-02T07:16:26.956Z,19.61
2022-09-02T07:18:58.015Z,19.71
2022-09-02T07:21:27.231Z,19.79
2022-09-02T07:23:59.639Z,19.83
2022-09-02T07:26:29.114Z,19.74
2022-09-02T07:28:58.462Z,19.58
2022-09-02T07:31:27.537Z,19.60
2022-09-02T07:33:58.897Z,19.48
2022-09-02T07:36:28.872Z,19.54
2022-09-02T07:38:59.709Z,19.62
2022-09-02T07:41:27.745Z,19.68
2022-09-02T07:43:59.620Z,19.69
2022-09-02T07:46:31.643Z,19.84
2022-09-02T07:49:00.425Z,19.98
2022-09-02T07:51:30.902Z,19.98
2022-09-02T07:54:03.128Z,20.04
2022-09-02T07:56:31.544Z,20.03
2022-09-02T07:58:59.721Z,20.13
2022-09-02T08:01:28.043Z,20.16
2022-09-02T08:03:57.949Z,20.16
2022-09-02T08:06:35.002Z,20.31
2022-09-02T08:09:06.796Z,20.45
2022-09-02T08:11:40.074Z,20.57
2022-09-02T08:14:09.103Z,20.66
2022-09-02T08:16:39.122Z,20.68
2022-09-02T08:19:08.511Z,20.61
2022-09-02T08:21:36.631Z,20.44
2022-09-02T08:24:06.371Z,20.32
2022-09-02T08:26:37.149Z,20.41
2022-09-02T08:29:05.503Z,20.39
2022-09-02T08:31:34.060Z,20.30
2022-09-02T08:34:02.481Z,20.40
2022-09-02T08:36:30.473Z,20.49
2022-09-02T08:38:58.664Z,20.61
2022-09-02T08:41:34.684Z,20.62
2022-09-02T08:44:05.235Z,20.58
2022-09-02T08:46:36.013Z,20.59
2022-09-02T08:49:10.780Z,20.72
2022-09-02T08:51:42.849Z,20.78
2022-09-02T08:54:21.420Z,20.86
2022-09-02T08:56:51.855Z,20.81
2022-09-02T08:59:22.187Z,20.57
2022-09-02T09:01:54.671Z,20.67
2022-09-02T09:04:32.951Z,20.89
2022-09-02T09:07:18.301Z,21.04
2022-09-02T09:10:00.480Z,21.00
2022-09-02T09:12:42.296Z,20.94
2022-09-02T09:15:14.953Z,20.85
2022-09-02T09:17:46.598Z,20.92
2022-09-02T09:20:20.465Z,21.12
2022-09-02T09:22:50.841Z,21.33
2022-09-02T09:25:19.968Z,21.48
2022-09-02T09:27:49.330Z,21.52
2022-09-02T09:30:17.452Z,21.63
2022-09-02T09:32:48.815Z,21.79
2022-09-02T09:35:18.031Z,21.99
2022-09-02T09:37:48.171Z,22.09
2022-09-02T09:40:38.416Z,22.08
2022-09-02T09:43:16.218Z,22.07
2022-09-02T09:45:45.845Z,22.06
2022-09-02T09:48:30.784Z,22.07
2022-09-02T09:51:14.120Z,22.12
2022-09-02T09:53:42.293Z,22.10
2022-09-02T09:56:26.687Z,22.06
2022-09-02T09:58:56.159Z,22.16
2022-09-02T10:01:26.491Z,22.06
2022-09-02T10:03:58.196Z,22.02
2022-09-02T10:06:37.464Z,22.07
2022-09-02T10:09:07.498Z,22.17
2022-09-02T10:11:37.741Z,22.16
2022-09-02T10:14:10.028Z,22.08
2022-09-02T10:16:51.931Z,22.00
2022-09-02T10:19:31.024Z,21.92
2022-09-02T10:22:14.459Z,21.80
2022-09-02T10:25:02.066Z,21.77
2022-09-02T10:27:38.726Z,21.87
2022-09-02T10:30:15.595Z,21.98
2022-09-02T10:32:59.855Z,22.07
2022-09-02T10:35:39.830Z,22.18
2022-09-02T10:38:29.340Z,22.28
2022-09-02T10:41:07.719Z,22.29
2022-09-02T10:43:57.208Z,22.32
2022-09-02T10:46:27.890Z,22.31
2022-09-02T10:49:06.635Z,22.34
2022-09-02T10:51:43.798Z,22.43
2022-09-02T10:54:24.421Z,22.43
2022-09-02T10:56:58.472Z,22.42
2022-09-02T10:59:30.489Z,22.49
2022-09-02T11:02:09.076Z,22.69
2022-09-02T11:04:41.747Z,22.87
2022-09-02T11:07:13.540Z,23.00
2022-09-02T11:09:48.977Z,23.05
2022-09-02T11:12:21.300Z,23.05
2022-09-02T11:15:00.272Z,23.08
2022-09-02T11:17:36.901Z,23.15
2022-09-02T11:20:11.805Z,23.24
2022-09-02T11:22:47.391Z,23.30
2022-09-02T11:25:19.063Z,23.37
2022-09-02T11:27:56.048Z,23.37
2022-09-02T11:30:27.896Z,23.47
2022-09-02T11:33:03.470Z,23.57
2022-09-02T11:35:38.740Z,23.61
2022-09-02T11:38:12.945Z,23.67
2022-09-02T11:43:50.071Z,23.75
2022-09-02T11:46:42.171Z,23.73
2022-09-02T11:49:44.304Z,23.70
2022-09-02T11:52:27.189Z,23.65
2022-09-02T11:55:05.932Z,23.75
2022-09-02T11:57:34.053Z,23.82
2022-09-02T12:00:13.752Z,23.81
2022-09-02T12:02:46.269Z,23.93
2022-09-02T12:05:51.477Z,24.05
2022-09-02T12:09:02.751Z,24.27
2022-09-02T12:11:53.226Z,24.47
2022-09-02T12:15:07.363Z,24.51
2022-09-02T12:17:38.468Z,24.37
2022-09-02T12:20:09.549Z,24.28
2022-09-02T12:22:42.565Z,24.27
2022-09-02T12:25:38.280Z,24.19
2022-09-02T12:28:21.590Z,24.23
2022-09-02T12:31:14.568Z,24.26
2022-09-02T12:33:45.322Z,24.24
2022-09-02T12:36:44.043Z,24.22
2022-09-02T12:39:52.911Z,24.22
2022-09-02T12:42:28.195Z,24.35
2022-09-02T12:45:06.834Z,24.45
2022-09-02T12:47:48.067Z,24.59
2022-09-02T12:50:26.453Z,24.72
2022-09-02T12:53:10.205Z,24.75
2022-09-02T12:55:41.250Z,24.70
2022-09-02T12:58:11.800Z,24.66
2022-09-02T13:01:01.073Z,24.60
2022-09-02T13:03:43.884Z,24.58
2022-09-02T13:06:21.318Z,24.50
2022-09-02T13:09:15.983Z,24.50
2022-09-02T13:12:16.484Z,24.53
2022-09-02T13:15:05.248Z,24.42
2022-09-02T13:17:48.311Z,24.39
2022-09-02T13:20:55.947Z,24.38
2022-09-02T13:24:00.768Z,24.51
2022-09-02T13:26:54.966Z,24.76
2022-09-02T13:30:09.574Z,24.84
2022-09-02T13:32:38.110Z,24.68
2022-09-02T13:35:08.819Z,24.48
2022-09-02T13:37:39.192Z,24.43
2022-09-02T13:40:19.314Z,24.44
2022-09-02T13:42:52.123Z,24.37
2022-09-02T13:45:23.560Z,24.38
2022-09-02T13:47:54.008Z,24.39
2022-09-02T13:50:24.425Z,24.31
2022-09-02T13:53:49.303Z,24.25
2022-09-02T13:55:51.074Z,24.21
2022-09-02T13:58:35.152Z,24.18
2022-09-02T14:01:28.980Z,24.12
2022-09-02T14:03:59.067Z,24.10
2022-09-02T14:06:31.427Z,24.11
2022-09-02T14:09:02.372Z,24.11
2022-09-02T14:11:39.288Z,24.13
2022-09-02T14:14:07.670Z,24.12
2022-09-02T14:16:38.118Z,24.13
2022-09-02T14:19:10.400Z,24.10
2022-09-02T14:21:45.224Z,24.10
2022-09-02T14:24:14.293Z,24.10
2022-09-02T14:26:45.198Z,24.09
2022-09-02T14:29:16.057Z,24.09
2022-09-02T14:31:46.293Z,24.09
2022-09-02T14:34:38.732Z,24.12
2022-09-02T14:37:25.565Z,24.14
2022-09-02T14:40:12.077Z,24.16
2022-09-02T14:42:51.750Z,24.12
2022-09-02T14:45:28.079Z,24.11
2022-09-02T14:47:58.671Z,24.12
2022-09-02T14:50:30.677Z,24.15
2022-09-02T14:53:04.856Z,24.19
2022-09-02T14:55:48.955Z,24.22
2022-09-02T14:58:18.096Z,24.19
2022-09-02T15:00:48.895Z,24.17
2022-09-02T15:03:18.280Z,24.24
2022-09-02T15:05:46.601Z,24.34
2022-09-02T15:08:15.826Z,24.43
2022-09-02T15:10:45.788Z,24.48
2022-09-02T15:13:16.000Z,24.50
2022-09-02T15:15:43.980Z,24.44
2022-09-02T15:18:14.169Z,24.33
2022-09-02T15:20:43.600Z,24.33
2022-09-02T15:23:11.570Z,24.27
2022-09-02T15:25:39.574Z,24.32
2022-09-02T15:28:07.591Z,24.41
2022-09-02T15:30:36.706Z,24.52
2022-09-02T15:33:05.483Z,24.62
2022-09-02T15:35:34.580Z,24.60
2022-09-02T15:38:04.598Z,24.62
2022-09-02T15:40:33.305Z,24.67
2022-09-02T15:43:01.429Z,24.71
2022-09-02T15:45:29.387Z,24.73
2022-09-02T15:47:59.559Z,24.77
2022-09-02T15:50:28.339Z,24.92
2022-09-02T15:52:56.974Z,25.28
2022-09-02T15:55:29.411Z,25.56
2022-09-02T15:57:57.745Z,25.75
2022-09-02T16:00:27.672Z,25.93
2022-09-02T16:02:57.462Z,26.09
2022-09-02T16:05:25.485Z,26.24
2022-09-02T16:07:55.199Z,26.33
2022-09-02T16:10:23.419Z,26.35
2022-09-02T16:12:52.751Z,26.35
2022-09-02T16:15:20.959Z,26.38
2022-09-02T16:17:50.066Z,26.48
2022-09-02T16:20:21.238Z,26.59
2022-09-02T16:22:49.454Z,26.60
2022-09-02T16:25:17.515Z,26.69
2022-09-02T16:27:55.935Z,26.86
2022-09-02T16:30:25.795Z,26.82
2022-09-02T16:32:54.522Z,26.67
2022-09-02T16:35:22.516Z,26.76
2022-09-02T16:37:50.957Z,26.73
2022-09-02T16:40:21.616Z,26.82
2022-09-02T16:42:50.051Z,26.79
2022-09-02T16:45:18.032Z,26.61
2022-09-02T16:47:47.332Z,26.41
2022-09-02T16:50:15.727Z,26.12
2022-09-02T16:52:43.698Z,25.86
2022-09-02T16:55:17.802Z,25.60
2022-09-02T16:57:45.799Z,25.45
2022-09-02T17:00:15.239Z,25.45
2022-09-02T17:02:44.056Z,25.54
2022-09-02T17:05:17.427Z,25.45
2022-09-02T17:07:46.361Z,25.30
2022-09-02T17:10:14.291Z,25.38
2022-09-02T17:12:43.302Z,25.59
2022-09-02T17:15:11.718Z,25.76
2022-09-02T17:17:40.125Z,25.88
2022-09-02T17:20:08.943Z,25.99
2022-09-02T17:22:38.359Z,25.93
2022-09-02T17:25:07.506Z,25.74
2022-09-02T17:27:36.415Z,25.52
2022-09-02T17:30:05.475Z,25.36
2022-09-02T17:32:33.536Z,25.18
2022-09-02T17:35:02.747Z,25.04
2022-09-02T17:37:30.693Z,24.84
2022-09-02T17:40:00.140Z,24.69
2022-09-02T17:42:27.254Z,24.49
2022-09-02T17:44:55.204Z,24.24
2022-09-02T17:47:24.169Z,24.08
2022-09-02T17:49:52.514Z,23.94
2022-09-02T17:52:21.988Z,23.85
2022-09-02T17:54:51.291Z,23.73
2022-09-02T17:57:43.252Z,23.65
2022-09-02T18:00:13.407Z,23.56
2022-09-02T18:03:12.403Z,23.47
2022-09-02T18:05:53.038Z,23.32
2022-09-02T18:08:32.421Z,23.17
2022-09-02T18:11:05.213Z,23.14
2022-09-02T18:13:40.671Z,23.14
2022-09-02T18:16:23.493Z,23.14
2022-09-02T18:19:03.049Z,23.09
2022-09-02T18:21:42.165Z,23.09
2022-09-02T18:24:17.693Z,22.91
2022-09-02T18:26:58.392Z,22.73
2022-09-02T18:29:43.336Z,22.84
2022-09-02T18:32:20.379Z,22.83
2022-09-02T18:34:55.537Z,22.92
2022-09-02T18:37:31.885Z,22.95
2022-09-02T18:40:10.936Z,22.98
2022-09-02T18:42:50.354Z,23.02
2022-09-02T18:45:26.049Z,22.92
2022-09-02T18:47:56.243Z,22.87
2022-09-02T18:50:47.473Z,22.81
2022-09-02T18:53:19.765Z,22.87
2022-09-02T18:55:48.884Z,22.89
2022-09-02T18:58:34.274Z,22.90
2022-09-02T19:01:10.366Z,22.88
2022-09-02T19:03:38.834Z,22.80
2022-09-02T19:06:12.975Z,22.75
2022-09-02T19:08:40.547Z,22.72
2022-09-02T19:11:12.913Z,22.60
2022-09-02T19:13:47.568Z,22.54
2022-09-02T19:16:19.748Z,22.42
2022-09-02T19:18:47.998Z,22.22
2022-09-02T19:21:20.559Z,21.98
2022-09-02T19:23:50.005Z,21.72
2022-09-02T19:26:18.875Z,21.62
2022-09-02T19:28:48.457Z,21.56
2022-09-02T19:31:22.627Z,21.47
2022-09-02T19:33:52.783Z,21.36
2022-09-02T19:36:22.045Z,21.35
2022-09-02T19:38:50.013Z,21.20
2022-09-02T19:41:17.958Z,21.23
2022-09-02T19:43:46.315Z,21.24
2022-09-02T19:46:27.913Z,21.14
2022-09-02T19:49:05.002Z,20.97
2022-09-02T19:51:32.937Z,20.99
2022-09-02T19:54:01.053Z,20.55
2022-09-02T19:56:29.015Z,20.75
2022-09-02T19:58:57.007Z,20.88
2022-09-02T20:01:25.062Z,20.94
2022-09-02T20:03:53.344Z,20.88
2022-09-02T20:06:22.773Z,20.76
2022-09-02T20:08:51.220Z,20.76
2022-09-02T20:11:19.234Z,20.75
2022-09-02T20:13:49.205Z,20.74
2022-09-02T20:16:20.391Z,20.70
2022-09-02T20:18:49.417Z,20.74
2022-09-02T20:21:22.149Z,20.79
2022-09-02T20:23:53.876Z,20.87
2022-09-02T20:26:35.131Z,20.91
2022-09-02T20:29:16.461Z,20.89
2022-09-02T20:31:59.000Z,20.84
2022-09-02T20:34:40.231Z,20.73
2022-09-02T20:37:20.344Z,20.64
2022-09-02T20:40:06.745Z,20.62
2022-09-02T20:42:53.400Z,20.55
2022-09-02T20:45:27.000Z,20.58
2022-09-02T20:48:07.431Z,20.58
2022-09-02T20:50:50.063Z,20.51
2022-09-02T20:53:28.734Z,20.50
2022-09-02T20:56:04.829Z,20.40
2022-09-02T20:58:41.304Z,20.42
2022-09-02T21:01:10.897Z,20.44
2022-09-02T21:03:49.776Z,20.44
2022-09-02T21:06:22.162Z,20.52
2022-09-02T21:09:00.612Z,20.45
2022-09-02T21:11:43.135Z,20.40
2022-09-02T21:14:16.394Z,20.16
2022-09-02T21:16:50.246Z,20.16
2022-09-02T21:19:30.434Z,20.22
2022-09-02T21:22:03.100Z,20.36
2022-09-02T21:24:37.072Z,20.29
2022-09-02T21:27:13.184Z,20.20
2022-09-02T21:29:46.588Z,20.19
2022-09-02T21:32:20.698Z,20.16
2022-09-02T21:34:55.122Z,20.21
2022-09-02T21:37:24.733Z,20.22
2022-09-02T21:39:58.096Z,20.05
2022-09-02T21:42:37.317Z,20.09
2022-09-02T21:45:13.427Z,20.12
2022-09-02T21:47:52.765Z,20.06
2022-09-02T21:50:26.285Z,20.04
2022-09-02T21:53:04.755Z,20.10
2022-09-02T21:55:46.107Z,20.14
2022-09-02T21:58:34.244Z,20.19
2022-09-02T22:01:07.767Z,20.08
2022-09-02T22:03:42.179Z,20.09
2022-09-02T22:06:14.784Z,20.15
2022-09-02T22:08:50.370Z,19.99
2022-09-02T22:11:26.593Z,19.91
2022-09-02T22:13:59.404Z,19.88
2022-09-02T22:16:41.221Z,19.79
2022-09-02T22:19:10.007Z,19.88
2022-09-02T22:21:48.467Z,19.95
2022-09-02T22:24:18.083Z,19.95
2022-09-02T22:26:51.323Z,19.83
2022-09-02T22:29:27.185Z,19.87
2022-09-02T22:31:59.606Z,19.95
2022-09-02T22:34:29.759Z,19.88
2022-09-02T22:37:01.688Z,19.84
2022-09-02T22:39:36.254Z,19.73
2022-09-02T22:42:11.093Z,19.76
2022-09-02T22:45:03.503Z,19.74
2022-09-02T22:47:51.716Z,19.62
2022-09-02T22:50:44.845Z,19.45
2022-09-02T22:53:12.954Z,19.46
2022-09-02T22:55:54.317Z,19.57
2022-09-02T22:58:32.899Z,19.58
2022-09-02T23:01:13.652Z,19.54
2022-09-02T23:03:47.815Z,19.45
2022-09-02T23:06:22.482Z,19.46
2022-09-02T23:08:50.469Z,19.39
2022-09-02T23:11:28.545Z,19.45
2022-09-02T23:14:10.507Z,19.48
2022-09-02T23:17:15.616Z,19.35
2022-09-02T23:20:06.521Z,19.37
2022-09-02T23:23:09.419Z,19.38
2022-09-02T23:26:05.110Z,19.36
2022-09-02T23:28:43.444Z,19.28
2022-09-02T23:31:21.953Z,19.28
2022-09-02T23:34:01.430Z,19.43
2022-09-02T23:36:40.228Z,19.33
2022-09-02T23:39:30.914Z,19.17
2022-09-02T23:42:01.404Z,19.20
2022-09-02T23:44:30.101Z,19.16
2022-09-02T23:47:11.247Z,19.19
2022-09-02T23:49:49.079Z,19.24
2022-09-02T23:52:26.413Z,19.32
2022-09-02T23:55:02.094Z,19.35
2022-09-02T23:57:52.817Z,19.28
